Time;durP1;ratioP1;P1;durP2;ratioP2;P2;SDS_P1;SDS_P2;PMS_P1;PMS_P2;Temp;Humidity;BMP_temperature;BMP_pressure;BME280_temperature;BME280_humidity;BME280_pressure;Samples;Min_cycle;Max_cycle;Signal;HPM_P1;HPM_P2
2022/07/08 00:00:36;;;;;;;9.10;1.70;;;;;;;14.41;74.13;103202.19;5028497;28;20492;-62
2022/07/08 00:03:01;;;;;;;7.25;1.73;;;;;;;14.40;74.71;103206.63;5028925;28;20057;-62
2022/07/08 00:05:27;;;;;;;9.13;1.98;;;;;;;14.31;75.26;103200.53;5028718;28;20664;-62
2022/07/08 00:07:52;;;;;;;6.90;1.90;;;;;;;14.21;76.02;103213.03;5017683;28;20053;-61
2022/07/08 00:10:18;;;;;;;7.70;1.80;;;;;;;14.09;76.54;103214.91;5008882;28;20092;-62
2022/07/08 00:12:43;;;;;;;6.30;1.80;;;;;;;14.05;77.08;103210.53;5008106;28;20022;-63
2022/07/08 00:15:09;;;;;;;6.85;2.35;;;;;;;14.12;76.71;103216.66;5008308;28;20105;-63
2022/07/08 00:17:35;;;;;;;8.23;1.65;;;;;;;14.14;76.69;103209.56;5008947;28;20022;-62
2022/07/08 00:20:01;;;;;;;11.55;2.05;;;;;;;14.20;76.51;103216.56;5009009;28;20030;-62
2022/07/08 00:22:26;;;;;;;11.43;1.88;;;;;;;14.18;76.24;103210.41;5007816;28;20026;-63
2022/07/08 00:24:52;;;;;;;10.55;1.80;;;;;;;14.20;75.90;103217.44;5007616;28;20022;-62
2022/07/08 00:27:18;;;;;;;12.98;2.03;;;;;;;14.12;76.21;103216.66;5007075;28;20026;-62
2022/07/08 00:29:43;;;;;;;8.38;1.58;;;;;;;14.10;76.15;103213.13;5007936;28;20057;-62
2022/07/08 00:32:08;;;;;;;4.88;1.27;;;;;;;14.06;76.39;103216.72;5008718;28;20045;-61
2022/07/08 00:34:34;;;;;;;8.23;1.70;;;;;;;14.03;76.29;103217.66;5007250;28;20024;-61
2022/07/08 00:37:00;;;;;;;8.68;1.83;;;;;;;14.01;76.78;103216.78;5006108;28;20404;-62
2022/07/08 00:39:25;;;;;;;9.55;1.90;;;;;;;14.04;76.62;103222.03;5026876;28;20035;-61
2022/07/08 00:41:51;;;;;;;6.38;1.80;;;;;;;14.03;76.58;103215.00;5027661;28;20044;-62
2022/07/08 00:44:17;;;;;;;4.43;1.60;;;;;;;14.06;76.54;103211.44;5026559;28;20029;-63
2022/07/08 00:46:42;;;;;;;3.10;1.55;;;;;;;14.05;76.56;103218.50;5042681;28;20476;-61
2022/07/08 00:49:07;;;;;;;10.45;2.10;;;;;;;14.04;76.27;103216.75;5027800;28;20034;-63
2022/07/08 00:51:33;;;;;;;10.85;1.90;;;;;;;14.07;76.12;103224.66;5027017;28;20067;-61
2022/07/08 00:53:58;;;;;;;6.80;1.73;;;;;;;14.09;76.17;103217.56;5027320;28;20041;-61
2022/07/08 00:56:25;;;;;;;7.63;1.70;;;;;;;14.08;75.81;103215.81;5027611;28;20071;-60
2022/07/08 00:58:50;;;;;;;6.90;1.67;;;;;;;14.07;75.82;103203.47;5025322;28;20053;-63
2022/07/08 01:01:16;;;;;;;9.73;2.53;;;;;;;14.07;75.86;103208.75;5041798;28;20076;-61
2022/07/08 01:03:44;;;;;;;5.57;1.60;;;;;;;14.02;75.72;103211.44;5027930;28;20568;-61
2022/07/08 01:06:09;;;;;;;10.73;1.67;;;;;;;13.97;75.77;103209.75;5031944;22;20055;-61
2022/07/08 01:08:34;;;;;;;6.10;1.65;;;;;;;13.95;75.86;103206.22;4975448;28;20035;-61
2022/07/08 01:11:00;;;;;;;7.68;1.45;;;;;;;13.93;75.90;103211.53;4986754;28;20548;-62
2022/07/08 01:13:25;;;;;;;5.70;1.70;;;;;;;13.93;75.49;103214.19;4988143;28;20028;-62
2022/07/08 01:15:51;;;;;;;5.47;1.63;;;;;;;13.91;75.57;103213.34;4987772;28;20026;-61
2022/07/08 01:18:26;;;;;;;7.65;1.67;;;;;;;13.87;75.85;103215.13;4970300;28;20042;-61
2022/07/08 01:20:52;;;;;;;8.70;1.80;;;;;;;13.83;75.85;103212.53;4987662;28;20030;-61
2022/07/08 01:23:18;;;;;;;6.75;1.50;;;;;;;13.74;76.11;103217.03;5007553;28;20383;-61
2022/07/08 01:25:44;;;;;;;3.92;1.40;;;;;;;13.71;76.59;103218.81;5006877;28;20018;-61
2022/07/08 01:28:09;;;;;;;10.43;1.90;;;;;;;13.67;76.92;103209.16;5005105;28;20018;-61
2022/07/08 01:30:35;;;;;;;5.78;1.40;;;;;;;13.62;77.26;103212.72;5007574;28;20030;-61
2022/07/08 01:33:00;;;;;;;11.27;2.08;;;;;;;13.58;77.70;103203.03;5007806;28;20026;-62
2022/07/08 01:35:25;;;;;;;7.68;1.58;;;;;;;13.59;77.87;103204.81;5007327;28;20104;-61
2022/07/08 01:37:50;;;;;;;9.55;2.17;;;;;;;13.55;78.13;103210.13;4970283;28;20510;-61
2022/07/08 01:40:16;;;;;;;8.57;1.98;;;;;;;13.49;78.85;103206.63;4966589;28;20547;-62
2022/07/08 01:42:41;;;;;;;4.78;1.45;;;;;;;13.42;78.87;103210.19;4968234;28;20041;-62
2022/07/08 01:45:07;;;;;;;3.92;1.25;;;;;;;13.38;79.39;103212.00;4968210;28;20092;-62
2022/07/08 01:47:32;;;;;;;5.57;1.65;;;;;;;13.45;78.95;103214.59;4968697;28;20042;-62
2022/07/08 01:49:58;;;;;;;7.35;1.80;;;;;;;13.48;79.23;103207.50;4968173;28;20034;-63
2022/07/08 01:52:23;;;;;;;7.35;1.75;;;;;;;13.57;79.43;103208.38;4984710;28;20030;-62
2022/07/08 01:54:50;;;;;;;4.57;1.65;;;;;;;13.59;79.30;103204.81;4987260;28;20445;-62
2022/07/08 01:57:15;;;;;;;11.98;2.05;;;;;;;13.62;79.13;103202.13;4985516;28;20030;-62
2022/07/08 01:59:46;;;;;;;6.90;1.85;;;;;;;13.60;79.26;103205.66;4986301;28;20037;-62
2022/07/08 02:02:12;;;;;;;4.45;1.30;;;;;;;13.57;79.69;103203.06;4987396;28;20428;-62
2022/07/08 02:04:38;;;;;;;7.13;1.80;;;;;;;13.50;80.08;103203.13;4986159;28;20026;-62
2022/07/08 02:07:03;;;;;;;7.45;1.85;;;;;;;13.44;79.93;103204.88;4986488;28;20112;-63
2022/07/08 02:09:29;;;;;;;6.70;2.15;;;;;;;13.40;80.21;103202.25;4987173;28;20026;-62
2022/07/08 02:14:38;;;;;;;8.25;1.65;;;;;;;13.42;80.44;103209.34;5006572;28;20041;-62
2022/07/08 02:17:03;;;;;;;16.05;2.20;;;;;;;13.40;80.42;103207.56;5006234;28;20049;-61
2022/07/08 02:19:29;;;;;;;7.43;1.80;;;;;;;13.36;80.43;103213.78;5006714;28;20053;-61
2022/07/08 02:21:55;;;;;;;9.85;1.98;;;;;;;13.35;80.67;103213.78;5006884;28;20034;-62
2022/07/08 02:24:20;;;;;;;8.00;1.55;;;;;;;13.35;80.82;103203.19;5006515;28;20075;-61
2022/07/08 02:26:46;;;;;;;7.03;2.03;;;;;;;13.34;81.14;103206.75;5005673;28;20041;-61
2022/07/08 02:29:11;;;;;;;9.82;1.85;;;;;;;13.30;81.41;103200.56;5006463;28;20372;-61
2022/07/08 02:31:36;;;;;;;8.80;1.80;;;;;;;13.29;81.48;103203.22;5005416;28;20026;-62
2022/07/08 02:34:02;;;;;;;10.00;1.95;;;;;;;13.35;81.62;103203.19;5005483;28;20026;-61
2022/07/08 02:36:27;;;;;;;9.38;1.88;;;;;;;13.38;81.45;103201.41;5006358;28;20034;-61
2022/07/08 02:38:53;;;;;;;9.07;2.35;;;;;;;13.45;81.26;103201.38;4976303;28;20439;-61
2022/07/08 02:41:18;;;;;;;11.50;2.55;;;;;;;13.49;81.27;103197.78;4987201;28;20053;-63
2022/07/08 02:43:43;;;;;;;8.18;2.00;;;;;;;13.50;81.37;103210.16;4986324;28;20073;-62
2022/07/08 02:46:09;;;;;;;10.30;2.30;;;;;;;13.49;81.44;103196.03;4998769;28;20057;-62
2022/07/08 02:48:34;;;;;;;6.35;2.35;;;;;;;13.53;81.32;103199.56;5005675;28;20026;-62
2022/07/08 02:51:00;;;;;;;11.55;1.85;;;;;;;13.54;81.04;103193.34;5004878;28;20514;-62
2022/07/08 02:53:25;;;;;;;9.75;2.22;;;;;;;13.44;81.79;103189.88;4987144;28;20053;-62
2022/07/08 02:55:50;;;;;;;6.20;2.40;;;;;;;13.39;81.64;103189.03;4986441;28;20489;-62
2022/07/08 02:58:15;;;;;;;11.60;2.65;;;;;;;13.39;81.90;103189.03;4986126;28;20064;-62
2022/07/08 03:00:41;;;;;;;9.35;2.88;;;;;;;13.42;82.00;103196.09;4984834;28;20130;-62
2022/07/08 03:03:06;;;;;;;12.68;2.20;;;;;;;13.43;82.37;103195.19;4986193;28;20045;-61
2022/07/08 03:05:31;;;;;;;11.57;2.38;;;;;;;13.45;82.21;103190.78;4985665;28;20029;-62
2022/07/08 03:07:57;;;;;;;10.95;1.98;;;;;;;13.45;82.39;103198.72;4986567;28;20050;-61
2022/07/08 03:10:22;;;;;;;8.02;2.60;;;;;;;13.45;82.70;103185.47;4986509;28;20109;-62
2022/07/08 03:12:47;;;;;;;8.20;2.30;;;;;;;13.43;82.93;103185.50;4986694;28;20575;-61
2022/07/08 03:15:13;;;;;;;8.75;2.33;;;;;;;13.46;82.87;103188.09;4984888;28;20480;-61
2022/07/08 03:17:38;;;;;;;9.45;2.22;;;;;;;13.45;83.06;103183.69;4985481;28;20037;-61
2022/07/08 03:20:04;;;;;;;10.27;1.98;;;;;;;13.42;83.14;103188.16;4984739;28;20015;-62
2022/07/08 03:22:30;;;;;;;7.05;1.85;;;;;;;13.40;83.20;103196.97;4976663;28;20034;-61
2022/07/08 03:24:55;;;;;;;11.52;2.42;;;;;;;13.33;83.06;103195.25;4965727;28;20023;-66
2022/07/08 03:27:20;;;;;;;8.18;2.22;;;;;;;13.34;83.10;103197.00;4970823;28;20393;-61
2022/07/08 03:29:46;;;;;;;11.68;2.50;;;;;;;13.43;83.45;103195.19;4979367;28;20110;-62
2022/07/08 03:32:11;;;;;;;11.18;2.70;;;;;;;13.51;83.04;103194.25;4986269;28;20109;-62
2022/07/08 03:34:36;;;;;;;8.00;2.30;;;;;;;13.54;82.86;103190.69;4987160;28;20125;-61
2022/07/08 03:37:02;;;;;;;11.65;2.40;;;;;;;13.58;82.86;103191.56;4986056;28;20113;-62
2022/07/08 03:39:27;;;;;;;8.75;2.13;;;;;;;13.56;83.08;103190.69;4985747;28;20030;-61
2022/07/08 03:41:52;;;;;;;10.63;2.08;;;;;;;13.57;83.30;103198.63;4985565;28;20033;-61
2022/07/08 03:44:18;;;;;;;9.88;2.40;;;;;;;13.54;83.32;103203.94;4984926;28;20022;-62
2022/07/08 03:46:43;;;;;;;9.27;2.08;;;;;;;13.57;83.21;103201.28;4994710;28;20495;-62
2022/07/08 03:49:08;;;;;;;9.70;2.25;;;;;;;13.67;82.99;103206.50;5005620;28;20157;-62
2022/07/08 03:51:34;;;;;;;8.75;2.17;;;;;;;13.73;82.65;103203.78;5004708;28;20168;-63
2022/07/08 03:53:59;;;;;;;12.35;2.95;;;;;;;13.77;82.74;103200.22;5004841;28;20148;-62
2022/07/08 03:56:25;;;;;;;12.43;2.50;;;;;;;13.82;82.77;103205.47;5005284;28;20026;-62
2022/07/08 03:58:50;;;;;;;11.93;2.58;;;;;;;13.88;82.50;103198.34;5006098;28;20030;-62
2022/07/08 04:01:15;;;;;;;13.55;2.45;;;;;;;13.90;82.22;103196.56;5000842;28;20112;-62
2022/07/08 04:03:41;;;;;;;7.03;2.38;;;;;;;13.94;82.41;103199.19;4979824;28;20030;-61
2022/07/08 04:06:06;;;;;;;13.57;2.78;;;;;;;13.97;82.49;103202.66;4988526;28;20034;-62
2022/07/08 04:08:32;;;;;;;11.30;2.35;;;;;;;14.00;82.50;103201.78;4991931;28;20026;-61
2022/07/08 04:10:57;;;;;;;11.75;2.30;;;;;;;13.96;82.76;103194.72;4997777;28;20030;-62
2022/07/08 04:13:27;;;;;;;13.93;2.45;;;;;;;14.04;82.55;103198.19;4997322;28;20014;-61
2022/07/08 04:15:55;;;;;;;8.15;2.28;;;;;;;14.06;82.32;103192.88;5001608;28;20057;-61
2022/07/08 04:18:21;;;;;;;13.87;2.53;;;;;;;14.07;82.53;103198.16;4997559;28;20093;-62
2022/07/08 04:20:46;;;;;;;12.25;2.40;;;;;;;14.12;82.21;103196.31;4990804;28;20360;-62
2022/07/08 04:23:12;;;;;;;8.95;1.90;;;;;;;14.19;81.95;103196.25;5007412;28;20026;-63
2022/07/08 04:25:37;;;;;;;8.27;2.60;;;;;;;14.25;81.65;103199.72;5006878;28;20033;-63
2022/07/08 04:28:03;;;;;;;9.02;2.28;;;;;;;14.34;81.47;103201.38;4997455;28;20018;-63
2022/07/08 04:30:28;;;;;;;10.23;2.28;;;;;;;14.43;80.90;103199.50;5001784;28;20384;-63
2022/07/08 04:32:54;;;;;;;10.70;2.42;;;;;;;14.50;80.86;103198.53;4998680;28;20061;-62
2022/07/08 04:35:19;;;;;;;14.88;2.80;;;;;;;14.58;80.60;103203.75;5003968;28;20056;-63
2022/07/08 04:37:44;;;;;;;12.13;2.22;;;;;;;14.62;80.35;103209.00;4985696;28;20046;-61
2022/07/08 04:40:10;;;;;;;13.05;2.90;;;;;;;14.67;80.10;103219.53;4993030;28;20023;-62
2022/07/08 04:42:36;;;;;;;10.70;2.10;;;;;;;14.66;80.15;103210.69;5000654;28;20480;-61
2022/07/08 04:45:03;;;;;;;9.80;2.25;;;;;;;14.72;80.08;103222.16;5006397;28;20537;-61
2022/07/08 04:47:28;;;;;;;13.65;2.53;;;;;;;14.80;79.99;103225.59;5007287;28;20575;-63
2022/07/08 04:49:53;;;;;;;12.02;2.47;;;;;;;14.84;80.08;103232.59;4996146;28;20033;-62
2022/07/08 04:52:19;;;;;;;12.02;2.30;;;;;;;14.94;79.47;103232.47;4988344;28;20388;-61
2022/07/08 04:54:44;;;;;;;9.57;2.03;;;;;;;15.01;79.35;103235.03;4986899;28;20385;-61
2022/07/08 04:57:09;;;;;;;12.68;3.20;;;;;;;15.11;79.05;103246.38;4988397;28;20038;-64
2022/07/08 04:59:34;;;;;;;11.00;2.08;;;;;;;15.19;79.00;103240.09;4988549;28;20021;-61
2022/07/08 05:02:00;;;;;;;8.95;2.08;;;;;;;15.19;79.16;103246.28;4987594;28;20042;-62
2022/07/08 05:04:26;;;;;;;10.68;1.98;;;;;;;15.29;78.65;103247.91;4986919;28;20027;-62
2022/07/08 05:06:51;;;;;;;12.30;2.38;;;;;;;15.40;78.27;103257.47;4987322;28;20050;-61
2022/07/08 05:09:17;;;;;;;6.97;2.13;;;;;;;15.50;78.07;103247.59;4987644;28;20113;-61
2022/07/08 05:11:42;;;;;;;13.07;2.45;;;;;;;15.51;78.39;103259.97;4988233;28;20030;-61
2022/07/08 05:14:12;;;;;;;10.40;2.17;;;;;;;15.65;77.83;103252.66;4986207;28;20046;-62
2022/07/08 05:16:38;;;;;;;14.10;1.83;;;;;;;15.71;78.00;103264.94;4988115;28;20262;-62
2022/07/08 05:19:04;;;;;;;12.50;2.40;;;;;;;15.79;77.63;103264.81;4987270;28;20077;-61
2022/07/08 05:21:29;;;;;;;10.63;2.40;;;;;;;15.88;77.83;103269.09;4987998;28;20034;-62
2022/07/08 05:23:54;;;;;;;11.65;2.30;;;;;;;15.92;77.85;103265.47;4992810;28;20538;-61
2022/07/08 05:26:20;;;;;;;16.08;2.97;;;;;;;16.03;77.83;103258.22;5007304;28;20093;-62
2022/07/08 05:28:45;;;;;;;12.65;2.88;;;;;;;16.11;78.12;103254.53;5005840;28;20037;-63
2022/07/08 05:31:10;;;;;;;12.05;2.40;;;;;;;16.25;77.76;103259.59;5006602;28;20033;-62
2022/07/08 05:33:36;;;;;;;9.80;2.10;;;;;;;16.27;77.81;103260.44;4988511;28;20034;-62
2022/07/08 05:36:03;;;;;;;12.07;2.33;;;;;;;16.35;77.73;103261.19;4987899;28;20112;-61
2022/07/08 05:38:28;;;;;;;14.20;2.45;;;;;;;16.44;77.65;103262.78;4987144;28;20473;-62
2022/07/08 05:40:54;;;;;;;11.10;2.40;;;;;;;16.54;77.52;103269.66;4987826;28;20027;-63
2022/07/08 05:43:19;;;;;;;12.45;2.33;;;;;;;16.57;77.33;103268.72;4986627;28;20029;-63
2022/07/08 05:45:44;;;;;;;16.35;2.65;;;;;;;16.73;76.25;103263.94;4986531;28;20481;-62
2022/07/08 05:48:10;;;;;;;14.30;2.50;;;;;;;16.79;76.25;103273.59;4987719;28;20031;-62
2022/07/08 05:50:35;;;;;;;12.07;2.65;;;;;;;16.84;76.74;103266.38;4982732;28;20429;-62
2022/07/08 05:53:00;;;;;;;11.65;2.35;;;;;;;16.88;76.12;103262.75;4978784;28;20477;-62
2022/07/08 05:55:26;;;;;;;6.65;2.00;;;;;;;16.96;76.08;103261.69;4985950;28;20033;-62
2022/07/08 05:57:51;;;;;;;13.68;2.13;;;;;;;17.04;75.48;103268.59;4986973;28;20473;-61
2022/07/08 06:00:16;;;;;;;10.32;2.42;;;;;;;17.23;74.98;103267.34;4986365;28;20030;-60
2022/07/08 06:02:42;;;;;;;7.70;2.08;;;;;;;17.25;75.00;103270.84;4987078;28;20038;-62
2022/07/08 06:05:07;;;;;;;10.38;2.10;;;;;;;17.34;74.76;103267.94;4984914;28;20033;-61
2022/07/08 06:07:33;;;;;;;19.75;3.10;;;;;;;17.41;74.35;103272.25;4986075;28;20109;-62
2022/07/08 06:09:59;;;;;;;11.32;2.17;;;;;;;17.53;74.36;103272.84;4986720;28;20034;-62
2022/07/08 06:12:25;;;;;;;11.05;2.65;;;;;;;17.62;74.18;103285.94;4986633;28;20544;-64
2022/07/08 06:14:50;;;;;;;9.57;2.45;;;;;;;17.76;73.63;103277.59;4986520;28;20110;-62
2022/07/08 06:17:15;;;;;;;10.65;1.88;;;;;;;17.87;72.79;103285.31;4985644;28;20469;-65
2022/07/08 06:19:41;;;;;;;7.15;1.90;;;;;;;17.99;73.49;103281.44;4987407;28;20023;-61
2022/07/08 06:22:06;;;;;;;12.25;2.20;;;;;;;18.18;73.13;103289.84;4999696;28;20437;-62
2022/07/08 06:24:32;;;;;;;10.38;2.00;;;;;;;18.32;72.01;103288.59;4985415;28;20069;-62
2022/07/08 06:26:57;;;;;;;13.85;2.38;;;;;;;18.47;72.11;103279.28;4986030;28;20022;-62
2022/07/08 06:29:22;;;;;;;12.23;2.65;;;;;;;18.52;72.07;103288.06;4985604;28;20097;-62
2022/07/08 06:31:48;;;;;;;10.23;2.30;;;;;;;18.61;72.23;103286.03;4986477;28;20029;-61
2022/07/08 06:34:13;;;;;;;7.40;1.65;;;;;;;18.69;71.72;103295.56;4986702;28;20061;-64
2022/07/08 06:36:38;;;;;;;14.60;2.10;;;;;;;18.72;71.19;103289.25;4985451;28;20025;-62
2022/07/08 06:39:04;;;;;;;15.70;2.22;;;;;;;18.74;71.26;103291.88;4986431;28;20030;-63
2022/07/08 06:41:29;;;;;;;10.13;1.98;;;;;;;18.79;71.81;103295.28;4985772;28;20034;-62
2022/07/08 06:43:54;;;;;;;7.82;2.13;;;;;;;18.91;71.02;103294.91;4986329;28;20026;-64
2022/07/08 06:46:20;;;;;;;9.73;2.17;;;;;;;19.04;70.00;103294.53;4986564;28;20527;-64
2022/07/08 06:48:46;;;;;;;9.88;2.33;;;;;;;19.10;69.51;103297.06;4986322;28;20033;-62
2022/07/08 06:51:11;;;;;;;9.05;1.73;;;;;;;19.09;70.17;103291.75;4987425;28;20477;-62
2022/07/08 06:56:21;;;;;;;7.78;2.00;;;;;;;19.25;69.45;103294.81;4985656;28;20508;-63
2022/07/08 06:58:46;;;;;;;8.50;1.73;;;;;;;19.16;68.70;103294.19;4985509;28;20014;-63
2022/07/08 07:01:12;;;;;;;8.68;2.40;;;;;;;19.18;68.24;103294.16;4986429;28;20022;-62
2022/07/08 07:03:38;;;;;;;8.07;2.30;;;;;;;19.22;67.80;103297.59;4986678;28;20429;-62
2022/07/08 07:06:03;;;;;;;6.95;1.92;;;;;;;19.26;68.28;103291.25;4985582;28;20121;-62
2022/07/08 07:08:29;;;;;;;9.95;1.98;;;;;;;19.24;67.84;103290.41;4985000;28;20342;-63
2022/07/08 07:10:54;;;;;;;10.82;1.83;;;;;;;19.17;68.18;103285.25;4985555;28;20047;-63
2022/07/08 07:13:20;;;;;;;13.23;2.47;;;;;;;19.30;68.41;103283.06;4985678;28;20384;-63
2022/07/08 07:15:45;;;;;;;11.18;2.17;;;;;;;19.43;68.76;103291.56;5000932;28;20026;-63
2022/07/08 07:18:10;;;;;;;12.75;2.00;;;;;;;19.45;68.57;103283.50;5005472;28;20165;-63
2022/07/08 07:20:36;;;;;;;7.25;1.65;;;;;;;19.62;68.13;103279.41;5005284;28;20491;-63
2022/07/08 07:23:01;;;;;;;8.82;2.05;;;;;;;19.76;67.42;103281.59;5005850;28;20548;-66
2022/07/08 07:25:26;;;;;;;11.73;2.33;;;;;;;19.84;66.05;103282.22;5005444;28;20748;-68
2022/07/08 07:27:52;;;;;;;7.45;1.70;;;;;;;20.12;65.66;103294.63;4994680;28;20330;-68
2022/07/08 07:30:19;;;;;;;8.25;1.83;;;;;;;20.25;63.80;103288.81;4981278;28;20132;-67
2022/07/08 07:32:45;;;;;;;8.75;2.33;;;;;;;20.54;63.19;103295.81;4985709;28;20066;-69
2022/07/08 07:35:10;;;;;;;7.70;1.58;;;;;;;20.52;62.51;103292.31;4983860;28;20046;-69
2022/07/08 07:37:37;;;;;;;11.20;1.77;;;;;;;20.41;62.83;103287.34;4989090;28;20417;-67
2022/07/08 07:40:04;;;;;;;9.57;1.83;;;;;;;20.49;62.42;103296.88;4989944;28;20030;-70
2022/07/08 07:42:29;;;;;;;10.80;1.88;;;;;;;20.55;62.42;103285.94;4986336;28;20078;-70
2022/07/08 07:44:54;;;;;;;14.77;2.00;;;;;;;20.64;61.78;103285.59;4987824;28;20109;-70
2022/07/08 07:47:20;;;;;;;4.63;1.75;;;;;;;20.48;61.20;103285.31;4988425;28;20089;-67
2022/07/08 07:49:45;;;;;;;8.60;1.70;;;;;;;20.61;61.12;103288.41;4989719;28;20081;-67
2022/07/08 07:52:10;;;;;;;6.28;1.60;;;;;;;20.57;62.00;103287.66;4989027;28;20038;-69
2022/07/08 07:54:36;;;;;;;8.85;1.65;;;;;;;20.58;61.86;103283.16;4987214;28;20425;-67
2022/07/08 07:57:01;;;;;;;7.93;1.55;;;;;;;20.58;62.48;103288.50;4989047;28;20605;-69
2022/07/08 07:59:26;;;;;;;7.20;1.80;;;;;;;20.69;62.06;103282.75;4988048;28;20101;-67
2022/07/08 08:01:52;;;;;;;5.07;1.40;;;;;;;20.63;61.03;103285.66;4990322;28;20045;-67
2022/07/08 08:04:17;;;;;;;7.25;1.73;;;;;;;20.63;60.11;103278.50;4988021;28;20038;-70
2022/07/08 08:06:42;;;;;;;8.77;1.83;;;;;;;20.56;60.71;103277.00;4988174;28;20038;-67
2022/07/08 08:09:08;;;;;;;8.25;1.60;;;;;;;20.61;59.00;103275.00;4988795;28;20022;-68
2022/07/08 08:11:33;;;;;;;8.93;1.85;;;;;;;20.61;59.68;103274.13;4989194;28;20062;-70
2022/07/08 08:13:58;;;;;;;7.13;1.33;;;;;;;20.66;59.83;103272.16;4988885;28;20097;-67
2022/07/08 08:16:24;;;;;;;5.30;1.50;;;;;;;20.68;58.74;103281.88;4990176;28;20050;-68
2022/07/08 08:18:49;;;;;;;5.35;1.60;;;;;;;20.67;59.63;103274.78;4987978;28;20018;-70
2022/07/08 08:21:14;;;;;;;7.13;1.85;;;;;;;20.64;59.27;103280.25;4987827;28;20030;-68
2022/07/08 08:23:40;;;;;;;7.32;1.90;;;;;;;20.61;60.67;103283.03;4988259;28;20014;-69
2022/07/08 08:26:05;;;;;;;3.45;1.38;;;;;;;20.68;60.09;103281.88;4988990;28;20038;-65
2022/07/08 08:28:30;;;;;;;5.05;1.50;;;;;;;20.69;60.07;103275.59;4989366;28;20084;-68
2022/07/08 08:30:55;;;;;;;5.63;1.27;;;;;;;20.73;60.35;103275.47;4989041;28;20378;-68
2022/07/08 08:33:21;;;;;;;4.82;1.52;;;;;;;20.74;59.72;103274.53;4986495;28;20507;-69
2022/07/08 08:35:46;;;;;;;5.35;1.33;;;;;;;20.74;59.60;103282.59;4988877;28;20030;-68
2022/07/08 08:38:11;;;;;;;5.15;1.45;;;;;;;20.71;58.68;103278.22;4988811;28;20132;-67
2022/07/08 08:40:38;;;;;;;6.53;1.60;;;;;;;20.78;57.63;103281.53;4988195;28;20034;-67
2022/07/08 08:43:03;;;;;;;4.47;1.33;;;;;;;20.78;58.02;103286.88;4987573;28;20030;-68
2022/07/08 08:45:30;;;;;;;10.15;1.40;;;;;;;20.85;59.12;103283.03;4986237;28;20031;-68
2022/07/08 08:47:59;;;;;;;7.57;1.58;;;;;;;20.90;58.04;103285.56;4987012;28;20026;-68
2022/07/08 08:53:10;;;;;;;7.55;1.42;;;;;;;20.96;58.44;103279.97;4985815;28;20157;-67
2022/07/08 08:55:35;;;;;;;4.28;1.55;;;;;;;21.05;57.68;103274.25;4986871;28;20489;-68
2022/07/08 08:58:05;;;;;;;4.47;1.35;;;;;;;21.06;58.09;103275.97;4988432;28;20077;-69
2022/07/08 09:00:32;;;;;;;8.98;1.80;;;;;;;21.15;59.14;103273.84;4986157;28;20101;-67
2022/07/08 09:02:58;;;;;;;6.40;1.60;;;;;;;21.11;60.44;103270.44;4987733;28;20061;-69
2022/07/08 09:05:25;;;;;;;4.30;1.40;;;;;;;21.19;60.96;103276.34;4987572;28;20057;-67
2022/07/08 09:07:50;;;;;;;5.88;1.60;;;;;;;21.26;60.10;103273.44;4987408;28;20038;-67
2022/07/08 09:10:16;;;;;;;5.78;1.63;;;;;;;21.37;57.96;103276.53;4986900;28;20042;-66
2022/07/08 09:13:08;;;;;;;10.35;2.00;;;;;;;21.30;57.85;103273.25;4985646;28;20433;-67
2022/07/08 09:15:43;;;;;;;3.33;1.25;;;;;;;21.30;57.58;103280.41;4985852;28;20038;-67
2022/07/08 09:18:10;;;;;;;5.70;1.42;;;;;;;21.28;57.11;103277.78;4985770;28;20177;-67
2022/07/08 09:20:43;;;;;;;4.07;1.02;;;;;;;21.44;57.13;103275.38;4987493;28;20037;-67
2022/07/08 09:23:13;;;;;;;5.72;1.50;;;;;;;21.56;59.28;103282.03;4983852;28;20034;-69
2022/07/08 09:25:39;;;;;;;5.55;1.70;;;;;;;21.64;58.68;103281.66;4986127;28;20133;-68
2022/07/08 09:28:04;;;;;;;3.83;1.33;;;;;;;21.61;58.41;103272.91;4986493;28;20038;-66
2022/07/08 09:30:30;;;;;;;5.10;1.40;;;;;;;21.51;58.46;103285.81;4986415;28;20381;-67
2022/07/08 09:32:58;;;;;;;2.65;1.30;;;;;;;21.54;56.56;103280.31;4987124;28;20350;-67
2022/07/08 09:35:35;;;;;;;4.53;1.27;;;;;;;21.57;56.34;103281.06;4985557;28;20034;-67
2022/07/08 09:38:02;;;;;;;4.53;1.20;;;;;;;21.58;56.94;103290.84;4985836;28;20018;-67
2022/07/08 09:40:27;;;;;;;3.92;1.20;;;;;;;21.75;55.80;103280.34;4985929;28;20026;-69
2022/07/08 09:42:52;;;;;;;4.10;1.70;;;;;;;21.68;55.51;103288.69;4986918;28;20684;-67
2022/07/08 09:45:18;;;;;;;5.35;1.20;;;;;;;21.71;57.05;103290.34;4985996;28;20113;-71
2022/07/08 09:47:43;;;;;;;9.35;1.38;;;;;;;21.82;55.88;103281.84;4986743;28;20104;-73
2022/07/08 09:50:09;;;;;;;4.97;1.30;;;;;;;21.91;56.44;103294.88;4985680;28;20030;-69
2022/07/08 09:52:34;;;;;;;5.07;1.00;;;;;;;22.02;55.70;103286.34;4985624;28;20022;-69
2022/07/08 09:55:01;;;;;;;7.22;1.50;;;;;;;22.18;56.01;103291.91;4985797;28;20104;-69
2022/07/08 09:57:29;;;;;;;3.08;1.30;;;;;;;22.32;56.16;103280.56;4983985;28;20018;-67
2022/07/08 09:59:54;;;;;;;5.70;1.30;;;;;;;22.38;56.27;103282.09;4984517;28;20106;-69
2022/07/08 10:02:20;;;;;;;2.50;1.38;;;;;;;22.41;55.69;103287.31;4985751;28;20121;-70
2022/07/08 10:04:46;;;;;;;7.03;1.63;;;;;;;22.48;54.86;103277.16;4989482;28;20026;-68
2022/07/08 10:07:11;;;;;;;3.97;1.27;;;;;;;22.58;53.79;103275.81;4984387;28;20108;-69
2022/07/08 10:09:36;;;;;;;7.22;1.60;;;;;;;22.66;54.50;103278.13;4984688;28;20026;-68
2022/07/08 10:12:04;;;;;;;3.58;1.23;;;;;;;22.66;54.74;103283.50;4986103;28;20525;-68
2022/07/08 10:14:29;;;;;;;5.38;1.75;;;;;;;22.73;52.82;103278.75;4983791;28;20034;-70
2022/07/08 10:16:55;;;;;;;3.58;1.10;;;;;;;22.78;51.35;103282.06;4987014;28;20030;-70
2022/07/08 10:19:29;;;;;;;2.83;0.98;;;;;;;22.75;49.86;103284.88;4976283;28;20422;-69
2022/07/08 10:21:56;;;;;;;6.95;1.20;;;;;;;22.74;50.50;103287.66;4966120;28;20030;-69
2022/07/08 10:24:24;;;;;;;2.65;1.08;;;;;;;22.86;50.22;103276.31;4982653;28;20052;-70
2022/07/08 10:26:50;;;;;;;3.23;1.13;;;;;;;22.89;49.80;103281.56;5006200;28;20105;-70
2022/07/08 10:29:15;;;;;;;3.60;1.00;;;;;;;22.88;50.22;103279.81;4987527;28;20496;-70
2022/07/08 10:31:52;;;;;;;2.40;1.05;;;;;;;23.06;49.10;103277.19;4984695;28;20452;-70
2022/07/08 10:34:19;;;;;;;3.55;1.20;;;;;;;23.23;47.72;103284.41;4984814;28;20026;-71
2022/07/08 10:36:50;;;;;;;4.32;0.95;;;;;;;23.29;48.20;103281.41;4986579;28;20064;-72
2022/07/08 10:39:30;;;;;;;4.13;1.00;;;;;;;23.26;47.95;103275.34;5001280;28;20699;-71
2022/07/08 10:42:06;;;;;;;1.50;1.10;;;;;;;23.41;47.50;103279.97;5004908;28;20041;-71
2022/07/08 10:44:43;;;;;;;4.35;1.23;;;;;;;23.43;46.99;103278.06;4987264;28;20019;-71
2022/07/08 10:47:09;;;;;;;2.25;1.00;;;;;;;23.57;47.57;103269.28;4983229;28;20026;-67
2022/07/08 10:49:42;;;;;;;4.00;1.10;;;;;;;23.55;47.53;103265.81;4985186;28;20026;-67
2022/07/08 10:52:08;;;;;;;3.72;1.25;;;;;;;23.78;46.94;103273.66;4984907;28;20053;-66
2022/07/08 10:54:39;;;;;;;4.40;0.90;;;;;;;23.86;46.17;103266.03;4984386;28;20018;-67
2022/07/08 10:57:18;;;;;;;5.88;1.27;;;;;;;23.97;46.50;103269.03;4985695;28;20011;-67
2022/07/08 11:00:02;;;;;;;3.13;0.98;;;;;;;24.10;45.28;103276.44;4982875;28;20571;-66
2022/07/08 11:02:28;;;;;;;2.83;0.90;;;;;;;24.21;44.20;103275.91;4983029;28;20034;-68
2022/07/08 11:04:54;;;;;;;3.45;1.13;;;;;;;24.07;43.71;103273.91;4975261;28;20037;-66
2022/07/08 11:07:28;;;;;;;2.03;0.88;;;;;;;23.93;44.11;103266.59;4978288;28;20437;-67
2022/07/08 11:10:03;;;;;;;2.95;1.15;;;;;;;24.08;44.75;103270.28;4985747;28;20042;-75
2022/07/08 11:12:32;;;;;;;1.70;0.82;;;;;;;24.35;43.95;103267.94;4988362;28;20481;-76
2022/07/08 11:14:59;;;;;;;3.47;0.80;;;;;;;24.30;43.81;103271.84;4986507;28;20084;-74
2022/07/08 11:17:27;;;;;;;3.88;1.25;;;;;;;24.40;42.94;103269.50;4989839;28;20022;-74
2022/07/08 11:19:54;;;;;;;2.78;0.95;;;;;;;24.64;42.04;103267.28;4995840;28;20029;-74
2022/07/08 11:22:21;;;;;;;1.85;0.88;;;;;;;24.79;41.91;103264.66;5009104;28;20034;-74
2022/07/08 11:24:47;;;;;;;4.38;1.10;;;;;;;24.97;41.95;103266.38;5009047;28;20543;-74